createdAt,value
2018-04-24T03:22:10.990Z,0.00
2018-04-24T03:23:11.026Z,0.00
2018-04-24T03:24:10.980Z,0.00
2018-04-24T03:25:11.071Z,0.00
2018-04-24T03:26:10.957Z,0.00
2018-04-24T03:27:10.946Z,0.00
2018-04-24T03:28:10.928Z,0.00
2018-04-24T03:29:10.971Z,0.00
2018-04-24T03:30:10.918Z,0.00
2018-04-24T03:31:10.950Z,0.00
2018-04-24T03:32:10.921Z,0.00
2018-04-24T03:33:10.966Z,0.00
2018-04-24T03:34:10.951Z,0.00
2018-04-24T03:35:10.927Z,0.00
2018-04-24T03:36:10.919Z,0.00
2018-04-24T03:37:10.927Z,0.00
2018-04-24T03:38:10.897Z,0.00
2018-04-24T03:39:10.897Z,0.00
2018-04-24T03:40:10.898Z,0.00
2018-04-24T03:41:10.895Z,0.00
2018-04-24T03:42:10.930Z,0.00
2018-04-24T03:43:10.895Z,0.00
2018-04-24T03:44:10.892Z,0.00
2018-04-24T03:45:10.919Z,0.00
2018-04-24T03:46:10.894Z,0.00
2018-04-24T03:47:10.919Z,0.00
2018-04-24T03:48:10.931Z,0.00
2018-04-24T03:49:10.896Z,0.00
2018-04-24T03:50:10.927Z,0.00
2018-04-24T03:51:10.909Z,4.00
2018-04-24T03:52:10.891Z,4.00
2018-04-24T03:53:10.885Z,0.00
2018-04-24T03:54:10.889Z,4.00
2018-04-24T03:55:10.892Z,4.00
2018-04-24T03:56:10.910Z,0.00
2018-04-24T03:57:10.944Z,0.00
2018-04-24T03:58:10.893Z,0.00
2018-04-24T03:59:10.927Z,0.00
2018-04-24T04:00:10.923Z,4.00
2018-04-24T04:01:10.896Z,4.00
2018-04-24T04:02:10.928Z,4.00
2018-04-24T04:03:10.946Z,4.00
2018-04-24T04:04:10.910Z,4.00
2018-04-24T04:05:10.926Z,4.00
2018-04-24T04:06:10.953Z,4.00
2018-04-24T04:07:10.891Z,8.00
2018-04-24T04:08:10.878Z,8.00
2018-04-24T04:09:10.895Z,8.00
2018-04-24T04:10:10.898Z,8.00
2018-04-24T04:11:10.886Z,12.00
2018-04-24T04:12:10.904Z,16.00
2018-04-24T04:13:19.619Z,20.00
2018-04-24T04:15:04.372Z,32.00
2018-04-24T04:16:04.325Z,32.00
2018-04-24T04:17:04.312Z,36.00
2018-04-24T04:18:04.369Z,40.00
2018-04-24T04:19:04.286Z,44.00
2018-04-24T04:20:04.281Z,48.00
2018-04-24T04:21:04.292Z,56.00
2018-04-24T04:22:04.286Z,56.00
2018-04-24T04:23:04.290Z,60.00
2018-04-24T04:24:04.299Z,68.00
2018-04-24T04:25:04.305Z,68.00
